Flight Track Log - Related Links

Times and Time Zones

All times are in EDT time to prevent confusion due to time zone crossing. See the RLI811 flight status page for this flight to view local times or setup timezone preferences in your user account.

Time Position Orientation Groundspeed Altitude Reporting Facility
EDT Latitude Longitude Course Direction KTS MPH feet Rate Location/Type
Fri 06:09:51 PM 43.0667 -71.6167 216° Southwest 125 144 6,400  Level KA90
Fri 06:10:27 PM 43.0500 -71.6333 216° Southwest 143 165 6,500 90 Climbing KA90
Fri 06:10:58 PM 43.0386 -71.6528 231° Southwest 144 166 6,500  Level Boston Center
Fri 06:11:57 PM 43.0044 -71.6936 221° Southwest 151 174 6,500  Level Boston Center
Fri 06:13:01 PM 42.9714 -71.7322 221° Southwest 156 180 6,500  Level Boston Center
Fri 06:14:01 PM 42.9369 -71.7700 219° Southwest 159 183 6,500  Level Boston Center
Fri 06:15:02 PM 42.9033 -71.8089 220° Southwest 158 182 6,500  Level Boston Center
Fri 06:16:02 PM 42.8681 -71.8489 220° Southwest 154 177 6,500 -48 Level Boston Center
Fri 06:17:06 PM 42.8358 -71.8844 219° Southwest 150 173 6,400 -48 Descending Boston Center
Fri 06:18:06 PM 42.8039 -71.9219 221° Southwest 153 176 6,400  Level Boston Center
Fri 06:19:07 PM 42.7694 -71.9622 221° Southwest 151 174 6,400  Level Boston Center
Fri 06:20:09 PM 42.7381 -72.0014 223° Southwest 154 177 6,400  Level Boston Center
Fri 06:21:09 PM 42.7036 -72.0417 221° Southwest 163 188 6,400  Level Boston Center
Fri 06:22:13 PM 42.6692 -72.0803 220° Southwest 162 186 6,400  Level Boston Center
Fri 06:23:13 PM 42.6325 -72.1217 220° Southwest 160 184 6,400 57 Level Boston Center
Fri 06:23:59 PM 42.6058 -72.1511 219° Southwest 160 184 6,500  Climbing Boston Center
Fri 06:24:14 PM 42.5978 -72.1603 220° Southwest 160 184 6,400  Descending Boston Center
Fri 06:24:59 PM 42.5719 -72.1917 222° Southwest 159 183 6,500  Climbing Boston Center
Fri 06:25:17 PM 42.5644 -72.1994 217° Southwest 160 184 6,400  Descending Boston Center
Fri 06:25:59 PM 42.5369 -72.2286 218° Southwest 161 185 6,500  Climbing Boston Center
Fri 06:26:17 PM 42.5253 -72.2397 215° Southwest 167 192 6,400  Descending Boston Center
Fri 06:27:00 PM 42.4986 -72.2703 220° Southwest 166 191 6,500  Climbing Boston Center
Fri 06:27:18 PM 42.4958 -72.2731 216° Southwest 166 191 6,400  Descending Boston Center
Fri 06:28:00 PM 42.4628 -72.3100 220° Southwest 166 191 6,500  Climbing Boston Center
Fri 06:28:21 PM 42.4611 -72.3125 228° Southwest 164 189 6,400  Descending Boston Center
Fri 06:29:00 PM 42.4275 -72.3469 217° Southwest 161 185 6,500  Climbing Boston Center
Fri 06:29:22 PM 42.4183 -72.3603 227° Southwest 166 191 6,400  Descending Boston Center
Fri 06:30:07 PM 42.3908 -72.3919 220° Southwest 164 189 6,500  Climbing Boston Center
Fri 06:30:22 PM 42.3833 -72.4003 219° Southwest 166 191 6,400  Descending Boston Center
Fri 06:31:08 PM 42.3531 -72.4308 217° Southwest 162 186 6,500  Climbing Boston Center
Fri 06:31:23 PM 42.3469 -72.4369 216° Southwest 165 190 6,400  Descending Boston Center
Fri 06:32:02 PM 42.3228 -72.4636 219° Southwest 168 193 6,500  Climbing Boston Center
Fri 06:32:26 PM 42.3081 -72.4792 218° Southwest 169 194 6,400  Descending Boston Center
Fri 06:33:02 PM 42.2839 -72.5078 221° Southwest 167 192 6,500  Climbing Boston Center
Fri 06:33:27 PM 42.2728 -72.5197 219° Southwest 167 192 6,400  Descending Boston Center
Fri 06:34:04 PM 42.2481 -72.5472 219° Southwest 165 190 6,500  Climbing Boston Center
Fri 06:34:28 PM 42.2342 -72.5628 220° Southwest 169 194 6,400  Descending Boston Center
Fri 06:34:58 PM 42.2147 -72.5847 220° Southwest 178 205 6,500  Climbing Boston Center
Fri 06:35:28 PM 42.1956 -72.6036 216° Southwest 177 204 6,400  Descending Boston Center
Fri 06:36:01 PM 42.1744 -72.6253 217° Southwest 175 201 6,500  Climbing Boston Center
Fri 06:36:32 PM 42.1592 -72.6433 221° Southwest 169 194 6,400  Descending Boston Center
Fri 06:36:56 PM 42.1436 -72.6606 219° Southwest 161 185 6,500  Climbing Boston Center
Fri 06:37:32 PM 42.1239 -72.6833 221° Southwest 166 191 6,400  Descending Boston Center
Fri 06:37:56 PM 42.1078 -72.7000 218° Southwest 168 193 6,500  Climbing Boston Center
Fri 06:38:34 PM 42.0842 -72.7256 219° Southwest 170 196 6,400  Descending Boston Center
Fri 06:38:55 PM 42.0694 -72.7411 218° Southwest 170 196 6,500  Climbing Boston Center
Fri 06:39:35 PM 42.0481 -72.7656 220° Southwest 169 194 6,400  Descending Boston Center
Fri 06:39:56 PM 42.0333 -72.7803 217° Southwest 171 197 6,500  Climbing Boston Center
Fri 06:40:36 PM 42.0103 -72.8042 218° Southwest 171 197 6,400  Descending Boston Center
Fri 06:40:57 PM 41.9950 -72.8214 220° Southwest 170 196 6,500  Climbing Boston Center
Fri 06:41:36 PM 41.9717 -72.8478 220° Southwest 170 196 6,400  Descending Boston Center
Fri 06:41:45 PM 41.9647 -72.8539 213° Southwest 170 196 6,500  Climbing Boston Center
Fri 06:42:37 PM 41.9339 -72.8853 217° Southwest 170 196 6,400  Descending Boston Center
Fri 06:42:46 PM 41.9286 -72.8928 227° Southwest 167 192 6,500  Climbing Boston Center
Fri 06:43:40 PM 41.8989 -72.9242 218° Southwest 166 191 6,400  Descending Boston Center
Fri 06:43:46 PM 41.8928 -72.9319 223° Southwest 165 190 6,500  Climbing Boston Center
Fri 06:44:41 PM 41.8619 -72.9675 221° Southwest 165 190 6,400 -52 Descending Boston Center
Fri 06:45:41 PM 41.8275 -73.0075 221° Southwest 165 190 6,400  Level Boston Center
Fri 06:46:44 PM 41.7914 -73.0464 219° Southwest 169 194 6,400 83 Level Boston Center
Fri 06:46:53 PM 41.7836 -73.0539 216° Southwest 165 190 6,500  Climbing Boston Center
Fri 06:47:45 PM 41.7556 -73.0842 219° Southwest 163 188 6,400 -98 Descending Boston Center
Fri 06:47:54 PM 41.7456 -73.0919 210° Southwest 165 190 6,400 -484 Level Boston Center
Fri 06:48:47 PM 41.7122 -73.1228 215° Southwest 177 204 5,900 -484 Descending Boston Center
Fri 06:48:56 PM 41.7056 -73.1294 217° Southwest 177 204 5,900 -423 Level Boston Center
Fri 06:49:58 PM 41.6631 -73.1686 215° Southwest 179 206 5,400 -478 Descending Boston Center
Fri 06:50:49 PM 41.6303 -73.1981 214° Southwest 180 207 5,000 -500 Descending Boston Center
Fri 06:50:58 PM 41.6208 -73.2050 209° Southwest 179 206 4,900 -508 Descending Boston Center
Fri 06:51:48 PM 41.5903 -73.2308 212° Southwest 184 212 4,500 -480 Descending Boston Center
Fri 06:54:00 PM 41.5154 -73.3076 219° Southwest  Level FlightAware Approximate
Fri 07:01:00 PM 41.3667 -73.4667 217° Southwest  Level FlightAware Approximate
Fri 07:02:00 PM 41.3715 -73.4822 217° Southwest  Level Estimated
Fri 07:03:00 PM 41.3715 -73.4822 217° Southwest  Level Estimated
Fri 07:04:00 PM 41.3715 -73.4822 217° Southwest  Level Estimated
Fri 07:05:00 PM 41.3715 -73.4822 217° Southwest  Level Estimated
Fri 07:06:00 PM 41.3715 -73.4822 217° Southwest  Level Estimated
Fri 07:07:00 PM 41.3715 -73.4822 217° Southwest  Level Estimated
Fri 07:08:00 PM 41.3715 -73.4822 217° Southwest  Level Estimated

Login

Don't have an account? Register now (free) for customized features, flight alerts, and more!